createdAt,value
2018-12-26T00:00:39.110Z,0.33
2018-12-26T00:01:39.166Z,0.40
2018-12-26T00:02:39.102Z,0.32
2018-12-26T00:03:39.078Z,0.40
2018-12-26T00:04:39.062Z,0.36
2018-12-26T00:05:39.134Z,0.35
2018-12-26T00:06:39.036Z,0.36
2018-12-26T00:07:39.048Z,0.47
2018-12-26T00:08:39.038Z,0.40
2018-12-26T00:09:39.107Z,0.35
2018-12-26T00:10:39.000Z,0.40
2018-12-26T00:11:38.997Z,0.36
2018-12-26T00:12:38.974Z,0.40
2018-12-26T00:13:38.986Z,0.32
2018-12-26T00:14:38.951Z,0.41
2018-12-26T00:15:38.945Z,0.36
2018-12-26T00:16:38.927Z,0.37
2018-12-26T00:17:38.916Z,0.36
2018-12-26T00:18:38.962Z,0.35
2018-12-26T00:19:38.971Z,0.37
2018-12-26T00:20:38.885Z,0.29
2018-12-26T00:21:38.875Z,0.29
2018-12-26T00:22:38.867Z,0.23
2018-12-26T00:23:38.875Z,0.32
2018-12-26T00:24:38.839Z,0.27
2018-12-26T00:25:38.842Z,0.20
2018-12-26T00:26:38.819Z,0.23
2018-12-26T00:27:38.818Z,0.09
2018-12-26T00:28:38.820Z,0.14
2018-12-26T00:29:38.795Z,0.08
2018-12-26T00:30:38.772Z,0.11
2018-12-26T00:31:38.762Z,0.11
2018-12-26T00:32:38.762Z,0.11
2018-12-26T00:33:38.779Z,0.11
2018-12-26T00:34:38.731Z,0.11
2018-12-26T00:35:38.722Z,0.08
2018-12-26T00:36:38.706Z,-0.01
2018-12-26T00:37:38.698Z,0.02
2018-12-26T00:38:38.685Z,-0.06
2018-12-26T00:39:38.699Z,0.04
2018-12-26T00:40:38.662Z,0.02
2018-12-26T00:41:38.653Z,0.07
2018-12-26T00:42:38.644Z,0.04
2018-12-26T00:43:38.639Z,-0.03
2018-12-26T00:44:38.642Z,-0.07
2018-12-26T00:45:38.611Z,-0.13
2018-12-26T00:46:38.599Z,0.02
2018-12-26T00:47:38.586Z,0.00
2018-12-26T00:48:38.576Z,-0.03
2018-12-26T00:49:38.586Z,0.04
2018-12-26T00:50:38.560Z,0.12
2018-12-26T00:51:38.547Z,0.04
2018-12-26T00:52:38.534Z,0.07
2018-12-26T00:53:38.521Z,0.12
2018-12-26T00:54:38.532Z,0.08
2018-12-26T00:55:38.503Z,0.12
2018-12-26T00:56:38.491Z,0.07
2018-12-26T00:57:38.477Z,0.12
2018-12-26T00:58:38.468Z,0.09
2018-12-26T00:59:38.478Z,0.09
2018-12-26T01:00:38.445Z,0.11
2018-12-26T01:01:38.434Z,0.09
2018-12-26T01:02:38.424Z,0.11
2018-12-26T01:03:38.411Z,0.09
2018-12-26T01:04:38.441Z,0.12
2018-12-26T01:05:38.388Z,0.15
2018-12-26T01:06:38.377Z,0.15
2018-12-26T01:07:38.367Z,0.17
2018-12-26T01:08:38.367Z,0.17
2018-12-26T01:09:38.352Z,0.11
2018-12-26T01:10:38.356Z,0.07
2018-12-26T01:11:38.326Z,0.04
2018-12-26T01:12:38.315Z,0.09
2018-12-26T01:13:38.302Z,0.04
2018-12-26T01:14:38.301Z,-0.04
2018-12-26T01:15:38.305Z,0.07
2018-12-26T01:16:38.270Z,-0.04
2018-12-26T01:17:38.259Z,0.05
2018-12-26T01:18:38.246Z,0.00
2018-12-26T01:19:38.240Z,-0.04
2018-12-26T01:20:38.248Z,0.05
2018-12-26T01:21:38.231Z,0.08
2018-12-26T01:22:38.202Z,0.08
2018-12-26T01:23:38.193Z,0.07
2018-12-26T01:24:38.184Z,0.12
2018-12-26T01:25:38.192Z,0.14
2018-12-26T01:26:38.164Z,0.09
2018-12-26T01:27:38.150Z,0.04
2018-12-26T01:28:38.137Z,0.04
2018-12-26T01:29:38.125Z,-0.07
2018-12-26T01:30:38.245Z,0.00
2018-12-26T01:31:38.112Z,-0.03
2018-12-26T01:32:38.095Z,-0.03
2018-12-26T01:33:38.087Z,-0.01
2018-12-26T01:34:38.075Z,-0.06
2018-12-26T01:35:38.097Z,-0.06
2018-12-26T01:36:38.054Z,-0.09
2018-12-26T01:37:38.046Z,-0.01
2018-12-26T01:38:38.026Z,-0.10
2018-12-26T01:39:38.021Z,-0.06
2018-12-26T01:40:38.005Z,-0.06
2018-12-26T01:41:38.017Z,-0.10
2018-12-26T01:42:37.984Z,-0.13
2018-12-26T01:43:37.972Z,-0.20
2018-12-26T01:44:37.974Z,-0.16
2018-12-26T01:45:37.954Z,-0.21
2018-12-26T01:46:37.964Z,-0.21
2018-12-26T01:47:37.932Z,-0.25
2018-12-26T01:48:37.919Z,-0.22
2018-12-26T01:49:37.907Z,-0.24
2018-12-26T01:50:37.896Z,-0.29
2018-12-26T01:51:37.909Z,-0.32
2018-12-26T01:52:37.874Z,-0.22
2018-12-26T01:53:37.866Z,-0.32
2018-12-26T01:54:37.852Z,-0.31
2018-12-26T01:55:37.841Z,-0.32
2018-12-26T01:56:37.852Z,-0.28
2018-12-26T01:57:37.818Z,-0.25
2018-12-26T01:58:37.808Z,-0.28
2018-12-26T01:59:37.800Z,-0.25
2018-12-26T02:00:37.787Z,-0.32
2018-12-26T02:01:37.800Z,-0.24
2018-12-26T02:02:37.764Z,-0.25
2018-12-26T02:03:37.759Z,-0.24
2018-12-26T02:04:37.741Z,-0.34
2018-12-26T02:05:37.731Z,-0.29
2018-12-26T02:06:37.745Z,-0.28
2018-12-26T02:07:37.709Z,-0.31
2018-12-26T02:08:37.698Z,-0.35
2018-12-26T02:09:37.687Z,-0.35
2018-12-26T02:10:37.679Z,-0.35
2018-12-26T02:11:37.693Z,-0.32
2018-12-26T02:12:37.680Z,-0.27
2018-12-26T02:13:37.643Z,-0.22
2018-12-26T02:14:37.635Z,-0.25
2018-12-26T02:15:37.621Z,-0.24
2018-12-26T02:16:37.643Z,-0.17
2018-12-26T02:17:37.600Z,-0.17
2018-12-26T02:18:37.715Z,-0.14
2018-12-26T02:19:37.578Z,-0.06
2018-12-26T02:20:37.570Z,-0.04
2018-12-26T02:21:37.556Z,-0.03
2018-12-26T02:22:37.571Z,-0.04
2018-12-26T02:23:37.536Z,-0.07
2018-12-26T02:24:37.526Z,-0.20
2018-12-26T02:25:37.512Z,-0.28
2018-12-26T02:26:37.512Z,-0.20
2018-12-26T02:27:37.515Z,-0.29
2018-12-26T02:28:37.483Z,-0.25
2018-12-26T02:29:37.468Z,-0.29
2018-12-26T02:30:37.457Z,-0.25
2018-12-26T02:31:37.460Z,-0.28
2018-12-26T02:32:37.461Z,-0.29
2018-12-26T02:33:37.426Z,-0.35
2018-12-26T02:34:37.414Z,-0.39
2018-12-26T02:35:37.404Z,-0.35
2018-12-26T02:36:37.397Z,-0.34
2018-12-26T02:37:37.413Z,-0.28
2018-12-26T02:38:37.370Z,-0.35
2018-12-26T02:39:37.358Z,-0.40
2018-12-26T02:40:37.353Z,-0.35
2018-12-26T02:41:37.338Z,-0.35
2018-12-26T02:42:37.354Z,-0.32
2018-12-26T02:43:37.317Z,-0.40
2018-12-26T02:44:37.303Z,-0.31
2018-12-26T02:45:37.296Z,-0.32
2018-12-26T02:46:37.283Z,-0.31
2018-12-26T02:47:37.298Z,-0.42
2018-12-26T02:48:37.262Z,-0.29
2018-12-26T02:49:37.252Z,-0.31
2018-12-26T02:50:37.239Z,-0.38
2018-12-26T02:51:37.226Z,-0.32
2018-12-26T02:52:37.240Z,-0.31
2018-12-26T02:53:37.211Z,-0.29
2018-12-26T02:54:37.194Z,-0.31
2018-12-26T02:55:37.183Z,-0.34
2018-12-26T02:56:46.187Z,-0.40
2018-12-26T02:57:37.198Z,-0.39
2018-12-26T02:58:37.152Z,-0.38
2018-12-26T02:59:37.141Z,-0.31
2018-12-26T03:00:37.133Z,-0.35
2018-12-26T03:01:37.119Z,-0.32
2018-12-26T03:02:37.109Z,-0.35
2018-12-26T03:03:37.126Z,-0.34
2018-12-26T03:04:37.102Z,-0.39
2018-12-26T03:05:37.072Z,-0.29
2018-12-26T03:06:37.067Z,-0.28
2018-12-26T03:07:37.051Z,-0.34
2018-12-26T03:08:37.064Z,-0.31
2018-12-26T03:09:37.030Z,-0.34
2018-12-26T03:10:37.018Z,-0.34
2018-12-26T03:11:37.009Z,-0.29
2018-12-26T03:12:37.004Z,-0.32
2018-12-26T03:13:37.008Z,-0.28
2018-12-26T03:14:36.975Z,-0.39
2018-12-26T03:15:36.962Z,-0.38
2018-12-26T03:16:36.953Z,-0.45
2018-12-26T03:17:36.941Z,-0.39
2018-12-26T03:18:36.953Z,-0.42
2018-12-26T03:19:36.937Z,-0.40
2018-12-26T03:20:36.910Z,-0.38
2018-12-26T03:21:36.897Z,-0.32
2018-12-26T03:22:36.887Z,-0.31
2018-12-26T03:23:36.915Z,-0.35
2018-12-26T03:24:36.866Z,-0.32
2018-12-26T03:25:36.858Z,-0.31
2018-12-26T03:26:36.846Z,-0.31
2018-12-26T03:27:36.833Z,-0.35
2018-12-26T03:28:36.825Z,-0.38
2018-12-26T03:29:36.833Z,-0.32
2018-12-26T03:30:36.806Z,-0.39
2018-12-26T03:31:36.797Z,-0.39
2018-12-26T03:32:36.781Z,-0.43
2018-12-26T03:33:36.766Z,-0.39
2018-12-26T03:34:36.779Z,-0.40
2018-12-26T03:35:36.743Z,-0.42
2018-12-26T03:36:36.733Z,-0.42
2018-12-26T03:37:36.726Z,-0.40
2018-12-26T03:38:36.714Z,-0.38
2018-12-26T03:39:36.724Z,-0.42
2018-12-26T03:40:36.690Z,-0.50
2018-12-26T03:41:36.679Z,-0.50
2018-12-26T03:42:36.670Z,-0.50
2018-12-26T03:43:36.672Z,-0.53
2018-12-26T03:44:36.676Z,-0.55
2018-12-26T03:45:36.634Z,-0.43
2018-12-26T03:46:36.624Z,-0.52
2018-12-26T03:47:36.615Z,-0.40
2018-12-26T03:48:36.607Z,-0.45
2018-12-26T03:49:36.630Z,-0.42
2018-12-26T03:50:36.581Z,-0.43
2018-12-26T03:51:36.570Z,-0.45
2018-12-26T03:52:36.559Z,-0.40
2018-12-26T03:53:36.547Z,-0.40
2018-12-26T03:54:36.562Z,-0.45
2018-12-26T03:55:36.535Z,-0.32
2018-12-26T03:56:36.519Z,-0.42
2018-12-26T03:57:36.527Z,-0.45
2018-12-26T03:58:36.493Z,-0.35
2018-12-26T03:59:36.519Z,-0.55
2018-12-26T04:00:36.471Z,-0.39
2018-12-26T04:01:36.461Z,-0.50
2018-12-26T04:02:36.454Z,-0.66
2018-12-26T04:03:36.441Z,-0.66
2018-12-26T04:04:36.427Z,-0.52
2018-12-26T04:05:36.439Z,-0.64
2018-12-26T04:06:36.404Z,-0.70
2018-12-26T04:07:36.394Z,-0.76
2018-12-26T04:08:36.384Z,-0.73
2018-12-26T04:09:36.377Z,-0.73
2018-12-26T04:10:36.389Z,-0.79
2018-12-26T04:11:36.349Z,-0.75
2018-12-26T04:12:36.345Z,-0.75
2018-12-26T04:13:36.331Z,-0.68
2018-12-26T04:14:36.322Z,-0.75
2018-12-26T04:15:36.329Z,-0.76
2018-12-26T04:16:36.299Z,-0.81
2018-12-26T04:17:36.289Z,-0.82
2018-12-26T04:18:36.274Z,-0.90
2018-12-26T04:19:36.265Z,-0.81
2018-12-26T04:20:36.276Z,-0.84
2018-12-26T04:21:36.241Z,-0.75
2018-12-26T04:22:36.232Z,-0.73
2018-12-26T04:23:36.219Z,-0.73
2018-12-26T04:24:36.208Z,-0.71
2018-12-26T04:25:36.220Z,-0.73
2018-12-26T04:26:36.185Z,-0.75
2018-12-26T04:27:36.176Z,-0.76
2018-12-26T04:28:36.166Z,-0.71
2018-12-26T04:29:36.153Z,-0.76
2018-12-26T04:30:36.184Z,-0.79
2018-12-26T04:31:36.132Z,-0.81
2018-12-26T04:32:36.124Z,-0.75
2018-12-26T04:33:36.112Z,-0.81
2018-12-26T04:34:36.103Z,-0.84
2018-12-26T04:35:36.108Z,-0.84
2018-12-26T04:36:36.103Z,-0.81
2018-12-26T04:37:36.067Z,-0.89
2018-12-26T04:38:36.056Z,-0.81
2018-12-26T04:39:36.046Z,-0.86
2018-12-26T04:40:36.036Z,-0.84
2018-12-26T04:41:36.045Z,-0.89
2018-12-26T04:42:36.013Z,-0.90
2018-12-26T04:43:36.002Z,-0.86
2018-12-26T04:44:35.990Z,-0.86
2018-12-26T04:45:35.978Z,-0.89
2018-12-26T04:46:35.989Z,-0.89
2018-12-26T04:47:35.957Z,-0.94
2018-12-26T04:48:35.948Z,-0.85
2018-12-26T04:49:35.943Z,-0.82
2018-12-26T04:50:35.932Z,-0.92
2018-12-26T04:51:35.951Z,-0.94
2018-12-26T04:52:35.906Z,-0.90
2018-12-26T04:53:35.892Z,-0.97
2018-12-26T04:54:35.888Z,-0.86
2018-12-26T04:55:35.871Z,-1.05
2018-12-26T04:56:35.885Z,-0.92
2018-12-26T04:57:35.849Z,-1.01
2018-12-26T04:58:35.835Z,-1.05
2018-12-26T04:59:35.828Z,-0.98
2018-12-26T05:00:35.849Z,-1.04
2018-12-26T05:01:35.826Z,-0.97
2018-12-26T05:02:35.798Z,-0.94
2018-12-26T05:03:35.790Z,-0.92
2018-12-26T05:04:35.769Z,-0.85
2018-12-26T05:05:35.759Z,-0.92
2018-12-26T05:06:35.899Z,-0.79
2018-12-26T05:07:35.741Z,-0.92
2018-12-26T05:08:35.726Z,-0.95
2018-12-26T05:09:35.715Z,-0.98
2018-12-26T05:10:35.704Z,-1.00
2018-12-26T05:11:35.694Z,-0.92
2018-12-26T05:12:35.710Z,-1.08
2018-12-26T05:13:35.708Z,-1.10
2018-12-26T05:14:35.664Z,-1.03
2018-12-26T05:15:35.651Z,-1.10
2018-12-26T05:16:35.639Z,-1.03
2018-12-26T05:17:35.654Z,-1.04
2018-12-26T05:18:35.619Z,-0.98
2018-12-26T05:19:35.606Z,-1.05
2018-12-26T05:20:35.748Z,-0.94
2018-12-26T05:21:35.584Z,-0.94
2018-12-26T05:22:35.596Z,-0.94
2018-12-26T05:23:35.563Z,-0.97
2018-12-26T05:24:35.554Z,-0.98
2018-12-26T05:25:35.542Z,-0.94
2018-12-26T05:26:35.533Z,-0.94
2018-12-26T05:27:35.540Z,-0.89
2018-12-26T05:28:35.512Z,-0.89
2018-12-26T05:29:35.503Z,-0.90
2018-12-26T05:30:35.527Z,-0.90
2018-12-26T05:31:35.477Z,-0.97
2018-12-26T05:32:35.489Z,-0.89
2018-12-26T05:33:35.452Z,-0.95
2018-12-26T05:34:35.443Z,-0.85
2018-12-26T05:35:35.431Z,-1.00
2018-12-26T05:36:35.419Z,-0.94
2018-12-26T05:37:35.432Z,-0.89
2018-12-26T05:38:35.399Z,-0.94
2018-12-26T05:39:35.386Z,-0.92
2018-12-26T05:40:35.376Z,-0.86
2018-12-26T05:41:35.367Z,-0.78
2018-12-26T05:42:35.380Z,-0.79
2018-12-26T05:43:35.342Z,-0.82
2018-12-26T05:44:35.332Z,-0.89
2018-12-26T05:45:35.323Z,-0.81
2018-12-26T05:46:35.310Z,-0.81
2018-12-26T05:47:35.321Z,-0.84
2018-12-26T05:48:35.290Z,-0.95
2018-12-26T05:49:35.277Z,-0.90
2018-12-26T05:50:35.267Z,-0.89
2018-12-26T05:51:35.256Z,-0.92
2018-12-26T05:52:35.439Z,-0.94
2018-12-26T05:53:35.233Z,-0.89
2018-12-26T05:54:35.226Z,-0.94
2018-12-26T05:55:36.465Z,-0.94
2018-12-26T05:56:35.200Z,-0.95
2018-12-26T05:57:42.564Z,-0.89
2018-12-26T05:58:35.210Z,-0.90
2018-12-26T05:59:35.168Z,-0.90
2018-12-26T06:00:35.158Z,-0.98
2018-12-26T06:01:35.145Z,-0.94
2018-12-26T06:02:35.135Z,-0.95
2018-12-26T06:03:35.190Z,-0.94
2018-12-26T06:04:35.113Z,-0.92
2018-12-26T06:05:35.179Z,-0.85
2018-12-26T06:06:35.091Z,-1.00
2018-12-26T06:07:35.081Z,-0.94
2018-12-26T06:08:35.093Z,-1.00
2018-12-26T06:09:35.059Z,-0.90
2018-12-26T06:10:35.050Z,-1.03
2018-12-26T06:11:35.041Z,-0.94
2018-12-26T06:12:35.027Z,-0.97
2018-12-26T06:13:35.043Z,-0.95
2018-12-26T06:14:35.007Z,-0.95
2018-12-26T06:15:34.993Z,-0.89
2018-12-26T06:16:34.987Z,-0.90
2018-12-26T06:17:34.971Z,-0.92
2018-12-26T06:18:34.985Z,-0.94
2018-12-26T06:19:34.950Z,-0.85
2018-12-26T06:20:34.937Z,-0.92
2018-12-26T06:21:34.927Z,-0.94
2018-12-26T06:22:34.916Z,-1.03
2018-12-26T06:23:34.943Z,-1.04
2018-12-26T06:24:34.897Z,-1.01
2018-12-26T06:25:34.929Z,-1.04
2018-12-26T06:26:34.874Z,-1.00
2018-12-26T06:27:34.862Z,-1.01
2018-12-26T06:28:34.851Z,-1.05
2018-12-26T06:29:34.864Z,-1.05
2018-12-26T06:30:34.828Z,-0.98
2018-12-26T06:31:34.819Z,-1.11
2018-12-26T06:32:34.808Z,-1.13
2018-12-26T06:33:34.796Z,-1.08
2018-12-26T06:34:34.813Z,-1.05
2018-12-26T06:35:34.780Z,-1.16
2018-12-26T06:36:34.763Z,-1.21
2018-12-26T06:37:34.752Z,-1.15
2018-12-26T06:38:34.762Z,-1.13
2018-12-26T06:39:34.755Z,-1.18
2018-12-26T06:40:34.722Z,-1.16
2018-12-26T06:41:34.708Z,-1.19
2018-12-26T06:42:34.728Z,-1.08
2018-12-26T06:43:34.686Z,-1.04
2018-12-26T06:44:34.709Z,-1.03
2018-12-26T06:45:34.668Z,-0.89
2018-12-26T06:46:34.657Z,-0.90
2018-12-26T06:47:34.643Z,-0.92
2018-12-26T06:48:34.633Z,-0.98
2018-12-26T06:49:34.644Z,-0.92
2018-12-26T06:50:34.610Z,-0.89
2018-12-26T06:51:34.603Z,-0.92
2018-12-26T06:52:34.594Z,-0.89
2018-12-26T06:53:34.580Z,-0.84
2018-12-26T06:54:34.596Z,-0.81
2018-12-26T06:55:34.558Z,-0.94
2018-12-26T06:56:34.545Z,-0.98
2018-12-26T06:57:34.533Z,-0.89
2018-12-26T06:58:34.524Z,-0.94
2018-12-26T06:59:34.616Z,-0.95
2018-12-26T07:00:34.611Z,-0.98
2018-12-26T07:01:34.489Z,-1.00
2018-12-26T07:02:34.479Z,-0.98
2018-12-26T07:03:34.472Z,-0.95
2018-12-26T07:04:34.457Z,-0.97
2018-12-26T07:05:34.478Z,-0.94
2018-12-26T07:06:34.438Z,-0.94
2018-12-26T07:07:34.424Z,-0.95
2018-12-26T07:08:34.414Z,-1.00
2018-12-26T07:09:34.403Z,-0.90
2018-12-26T07:10:34.417Z,-1.00
2018-12-26T07:11:34.381Z,-0.94
2018-12-26T07:12:34.370Z,-0.95
2018-12-26T07:13:34.359Z,-0.95
2018-12-26T07:14:34.348Z,-0.94
2018-12-26T07:15:34.376Z,-0.94
2018-12-26T07:16:34.326Z,-0.82
2018-12-26T07:17:34.319Z,-0.89
2018-12-26T07:18:34.306Z,-0.85
2018-12-26T07:19:34.295Z,-0.90
2018-12-26T07:20:34.332Z,-0.92
2018-12-26T07:21:34.275Z,-0.90
2018-12-26T07:22:34.263Z,-0.92
2018-12-26T07:23:34.250Z,-0.75
2018-12-26T07:24:34.245Z,-0.86
2018-12-26T07:25:34.252Z,-0.85
2018-12-26T07:26:34.218Z,-0.89
2018-12-26T07:27:34.220Z,-0.89
2018-12-26T07:28:34.194Z,-0.86
2018-12-26T07:29:34.187Z,-0.81
2018-12-26T07:30:34.198Z,-0.81
2018-12-26T07:31:34.162Z,-0.81
2018-12-26T07:32:34.151Z,-0.78
2018-12-26T07:33:34.140Z,-0.75
2018-12-26T07:34:41.985Z,-0.76
2018-12-26T07:35:34.164Z,-0.76
2018-12-26T07:36:34.208Z,-0.68
2018-12-26T07:37:34.097Z,-0.71
2018-12-26T07:38:43.789Z,-0.70
2018-12-26T07:39:34.075Z,-0.71
2018-12-26T07:40:34.098Z,-0.68
2018-12-26T07:41:34.057Z,-0.68
2018-12-26T07:42:34.055Z,-0.64
2018-12-26T07:43:34.032Z,-0.61
2018-12-26T07:44:34.025Z,-0.52
2018-12-26T07:45:34.008Z,-0.52
2018-12-26T07:46:34.026Z,-0.52
2018-12-26T07:47:33.986Z,-0.55
2018-12-26T07:48:33.977Z,-0.61
2018-12-26T07:49:33.965Z,-0.50
2018-12-26T07:50:33.955Z,-0.66
2018-12-26T07:51:33.981Z,-0.58
2018-12-26T07:52:33.936Z,-0.52
2018-12-26T07:53:33.923Z,-0.50
2018-12-26T07:54:33.914Z,-0.55
2018-12-26T07:55:33.905Z,-0.52
2018-12-26T07:56:33.913Z,-0.52
2018-12-26T07:57:44.502Z,-0.49
2018-12-26T07:58:33.869Z,-0.57
2018-12-26T07:59:37.681Z,-0.52
2018-12-26T08:00:33.844Z,-0.55
2018-12-26T08:01:33.856Z,-0.40
2018-12-26T08:02:33.825Z,-0.42
2018-12-26T08:03:33.814Z,-0.42
2018-12-26T08:04:33.828Z,-0.40
2018-12-26T08:05:33.794Z,-0.40
2018-12-26T08:06:33.818Z,-0.32
2018-12-26T08:07:33.767Z,-0.28
2018-12-26T08:08:33.757Z,-0.31
2018-12-26T08:09:33.746Z,-0.32
2018-12-26T08:10:33.735Z,-0.31
2018-12-26T08:11:33.724Z,-0.28
2018-12-26T08:12:33.735Z,-0.29
2018-12-26T08:13:33.704Z,-0.31
2018-12-26T08:14:33.691Z,-0.34
2018-12-26T08:15:43.792Z,-0.39
2018-12-26T08:16:33.669Z,-0.32
2018-12-26T08:17:33.680Z,-0.34
2018-12-26T08:18:33.782Z,-0.32
2018-12-26T08:19:33.643Z,-0.34
2018-12-26T08:20:33.626Z,-0.35
2018-12-26T08:21:33.616Z,-0.28
2018-12-26T08:22:33.698Z,-0.34
2018-12-26T08:23:33.592Z,-0.24
2018-12-26T08:24:33.611Z,-0.22
2018-12-26T08:25:33.602Z,-0.27
2018-12-26T08:26:33.561Z,-0.21
2018-12-26T08:27:33.574Z,-0.17
2018-12-26T08:28:41.899Z,-0.21
2018-12-26T08:29:33.529Z,-0.13
2018-12-26T08:30:33.517Z,-0.09
2018-12-26T08:31:42.069Z,-0.11
2018-12-26T08:32:33.533Z,-0.06
2018-12-26T08:33:33.483Z,-0.04
2018-12-26T08:34:33.472Z,0.00
2018-12-26T08:35:33.461Z,0.05
2018-12-26T08:36:42.121Z,0.09
2018-12-26T08:37:33.467Z,0.09
2018-12-26T08:38:33.476Z,0.14
2018-12-26T08:39:33.418Z,0.20
2018-12-26T08:40:33.435Z,0.27
2018-12-26T08:41:33.414Z,0.32
2018-12-26T08:42:33.408Z,0.40
2018-12-26T08:43:33.378Z,0.35
2018-12-26T08:44:33.367Z,0.41
2018-12-26T08:45:33.384Z,0.47
2018-12-26T08:46:33.355Z,0.50
2018-12-26T08:47:33.354Z,0.55
2018-12-26T08:48:33.324Z,0.56
2018-12-26T08:49:33.308Z,0.51
2018-12-26T08:50:33.347Z,0.55
2018-12-26T08:51:33.285Z,0.60
2018-12-26T08:52:33.390Z,0.60
2018-12-26T08:53:42.263Z,0.64
2018-12-26T08:54:33.255Z,0.66
2018-12-26T08:55:33.242Z,0.60
2018-12-26T08:56:33.232Z,0.55
2018-12-26T08:57:33.234Z,0.72
2018-12-26T08:58:35.289Z,0.74
2018-12-26T08:59:33.440Z,0.78
2018-12-26T09:00:33.455Z,0.74
2018-12-26T09:01:33.194Z,0.78
2018-12-26T09:02:33.184Z,0.85
2018-12-26T09:03:33.179Z,0.88
2018-12-26T09:04:33.152Z,0.90
2018-12-26T09:05:33.529Z,0.96
2018-12-26T09:06:33.125Z,0.99
2018-12-26T09:07:33.229Z,1.06
2018-12-26T09:08:33.125Z,1.05
2018-12-26T09:09:33.091Z,1.09
2018-12-26T09:10:33.081Z,1.23
2018-12-26T09:11:33.067Z,1.28
2018-12-26T09:12:33.056Z,1.38
2018-12-26T09:13:33.067Z,1.48
2018-12-26T09:14:33.034Z,1.46
2018-12-26T09:15:33.023Z,1.55
2018-12-26T09:16:33.020Z,1.44
2018-12-26T09:17:33.003Z,1.38
2018-12-26T09:18:33.016Z,1.45
2018-12-26T09:19:32.982Z,1.41
2018-12-26T09:20:32.968Z,1.42
2018-12-26T09:21:32.958Z,1.38
2018-12-26T09:22:32.949Z,1.34
2018-12-26T09:23:32.962Z,1.39
2018-12-26T09:24:44.376Z,1.44
2018-12-26T09:25:32.916Z,1.44
2018-12-26T09:26:32.903Z,1.48
2018-12-26T09:27:32.890Z,1.57
2018-12-26T09:28:32.904Z,1.46
2018-12-26T09:29:32.944Z,1.57
2018-12-26T09:30:33.064Z,1.57
2018-12-26T09:31:32.943Z,1.69
2018-12-26T09:32:32.838Z,1.63
2018-12-26T09:33:32.874Z,1.69
2018-12-26T09:34:32.814Z,1.77
2018-12-26T09:35:32.814Z,1.80
2018-12-26T09:36:32.803Z,1.91
2018-12-26T09:37:32.814Z,1.91
2018-12-26T09:38:32.773Z,1.91
2018-12-26T09:39:32.783Z,1.93
2018-12-26T09:40:32.908Z,2.10
2018-12-26T09:41:32.738Z,2.07
2018-12-26T09:42:32.802Z,2.14
2018-12-26T09:43:32.753Z,2.24
2018-12-26T09:44:32.779Z,2.48
2018-12-26T09:45:32.965Z,2.55
2018-12-26T09:46:32.681Z,2.79
2018-12-26T09:47:32.677Z,2.82
2018-12-26T09:48:41.697Z,2.87
2018-12-26T09:49:32.690Z,3.05
2018-12-26T09:50:32.638Z,3.18
2018-12-26T09:52:26.566Z,3.36
2018-12-26T09:53:26.552Z,3.35
2018-12-26T09:54:26.563Z,3.49
2018-12-26T09:55:26.535Z,3.32
2018-12-26T09:56:26.527Z,3.33
2018-12-26T09:57:26.812Z,3.36
2018-12-26T09:58:26.499Z,3.52
2018-12-26T09:59:26.542Z,3.88
2018-12-26T10:00:26.556Z,3.94
2018-12-26T10:01:26.496Z,3.98
2018-12-26T10:02:26.449Z,3.94
2018-12-26T10:03:35.443Z,4.18
2018-12-26T10:04:26.452Z,4.39
2018-12-26T10:05:26.421Z,4.67
2018-12-26T10:06:26.531Z,4.86
2018-12-26T10:07:26.395Z,5.04
2018-12-26T10:08:26.384Z,5.21
2018-12-26T10:09:26.425Z,5.43
2018-12-26T10:10:26.406Z,5.57
2018-12-26T10:11:26.351Z,5.62
2018-12-26T10:12:26.338Z,5.70
2018-12-26T10:13:26.327Z,5.73
2018-12-26T10:14:26.317Z,5.80
2018-12-26T10:15:26.329Z,5.59
2018-12-26T10:16:26.300Z,5.70
2018-12-26T10:17:26.283Z,5.85
2018-12-26T10:18:26.271Z,5.91
2018-12-26T10:19:26.261Z,5.88
2018-12-26T10:20:26.307Z,5.91
2018-12-26T10:21:26.240Z,5.88
2018-12-26T10:22:26.226Z,5.87
2018-12-26T10:23:26.218Z,5.87
2018-12-26T10:24:26.298Z,5.90
2018-12-26T10:25:26.259Z,5.80
2018-12-26T10:26:26.186Z,5.80
2018-12-26T10:27:26.289Z,5.72
2018-12-26T10:28:26.167Z,5.55
2018-12-26T10:29:26.160Z,5.55
2018-12-26T10:30:26.202Z,5.39
2018-12-26T10:31:26.135Z,5.32
2018-12-26T10:32:26.120Z,5.32
2018-12-26T10:33:26.116Z,5.27
2018-12-26T10:34:26.093Z,5.29
2018-12-26T10:35:26.106Z,5.39
2018-12-26T10:36:26.070Z,5.41
2018-12-26T10:37:26.060Z,5.43
2018-12-26T10:38:26.048Z,5.65
2018-12-26T10:39:26.042Z,5.61
2018-12-26T10:40:26.056Z,5.67
2018-12-26T10:41:26.021Z,5.73
2018-12-26T10:42:26.004Z,5.90
2018-12-26T10:43:25.993Z,6.09
2018-12-26T10:44:25.982Z,6.18
2018-12-26T10:45:26.017Z,6.31
2018-12-26T10:46:25.961Z,6.42
2018-12-26T10:47:25.951Z,6.47
2018-12-26T10:48:25.938Z,6.18
2018-12-26T10:49:25.927Z,5.82
2018-12-26T10:50:25.962Z,5.59
2018-12-26T10:51:25.973Z,5.58
2018-12-26T10:52:25.892Z,5.44
2018-12-26T10:53:25.881Z,5.24
2018-12-26T10:54:25.872Z,4.97
2018-12-26T10:55:25.862Z,4.86
2018-12-26T10:56:25.873Z,4.64
2018-12-26T10:57:25.843Z,4.41
2018-12-26T10:58:25.831Z,4.27
2018-12-26T10:59:25.820Z,4.10
2018-12-26T11:00:25.853Z,3.96
2018-12-26T11:01:25.816Z,3.84
2018-12-26T11:02:25.787Z,3.78
2018-12-26T11:03:25.773Z,3.56
2018-12-26T11:04:25.763Z,3.52
2018-12-26T11:05:29.600Z,3.54
2018-12-26T11:06:25.759Z,3.45
2018-12-26T11:07:25.735Z,3.26
2018-12-26T11:08:25.716Z,3.29
2018-12-26T11:09:25.705Z,3.18
2018-12-26T11:10:25.692Z,3.04
2018-12-26T11:11:25.704Z,3.02
2018-12-26T11:12:25.670Z,3.00
2018-12-26T11:13:25.662Z,2.91
2018-12-26T11:14:25.650Z,3.00
2018-12-26T11:15:25.636Z,3.02
2018-12-26T11:16:25.658Z,3.05
2018-12-26T11:17:25.615Z,3.12
2018-12-26T11:18:25.603Z,3.08
2018-12-26T11:19:25.590Z,3.08
2018-12-26T11:20:25.580Z,3.12
2018-12-26T11:21:25.604Z,3.33
2018-12-26T11:22:25.559Z,3.37
2018-12-26T11:23:25.567Z,3.46
2018-12-26T11:24:25.536Z,3.49
2018-12-26T11:25:25.525Z,3.45
2018-12-26T11:26:25.539Z,3.54
2018-12-26T11:27:25.503Z,3.67
2018-12-26T11:28:25.492Z,3.72
2018-12-26T11:29:25.481Z,3.74
2018-12-26T11:30:25.471Z,3.92
2018-12-26T11:31:25.482Z,3.96
2018-12-26T11:32:25.447Z,4.09
2018-12-26T11:33:25.439Z,4.21
2018-12-26T11:34:25.427Z,4.31
2018-12-26T11:35:25.418Z,4.54
2018-12-26T11:36:25.440Z,4.67
2018-12-26T11:37:34.831Z,4.78
2018-12-26T11:38:25.380Z,4.98
2018-12-26T11:39:25.369Z,5.12
2018-12-26T11:40:25.360Z,5.39
2018-12-26T11:41:25.349Z,5.55
2018-12-26T11:42:25.416Z,5.73
2018-12-26T11:43:25.331Z,5.95
2018-12-26T11:44:25.368Z,6.16
2018-12-26T11:45:25.356Z,6.47
2018-12-26T11:46:25.293Z,6.83
2018-12-26T11:47:25.303Z,7.15
2018-12-26T11:48:34.634Z,7.87
2018-12-26T11:49:34.719Z,8.62
2018-12-26T11:50:25.247Z,9.33
2018-12-26T11:51:25.236Z,9.51
2018-12-26T11:52:25.249Z,9.48
2018-12-26T11:53:25.213Z,9.51
2018-12-26T11:54:25.205Z,9.63
2018-12-26T11:55:25.193Z,10.02
2018-12-26T11:56:25.237Z,10.30
2018-12-26T11:57:25.347Z,10.68
2018-12-26T11:58:25.175Z,11.09
2018-12-26T11:59:27.384Z,11.55
2018-12-26T12:00:25.136Z,11.49
2018-12-26T12:01:33.450Z,11.46
2018-12-26T12:02:27.639Z,11.80
2018-12-26T12:03:35.826Z,11.89
2018-12-26T12:04:25.092Z,12.00
2018-12-26T12:05:25.087Z,11.85
2018-12-26T12:06:25.071Z,11.52
2018-12-26T12:07:25.057Z,11.03
2018-12-26T12:08:25.069Z,10.58
2018-12-26T12:10:18.713Z,9.80
2018-12-26T12:11:18.694Z,9.59
2018-12-26T12:12:18.688Z,9.70
2018-12-26T12:13:28.537Z,9.75
2018-12-26T12:14:18.660Z,9.59
2018-12-26T12:15:18.650Z,9.42
2018-12-26T12:16:18.650Z,9.26
2018-12-26T12:17:18.629Z,8.90
2018-12-26T12:18:18.644Z,8.81
2018-12-26T12:19:18.608Z,8.67
2018-12-26T12:20:18.593Z,8.67
2018-12-26T12:21:18.585Z,8.53
2018-12-26T12:22:18.574Z,8.39
2018-12-26T12:23:18.682Z,8.39
2018-12-26T12:24:18.558Z,8.35
2018-12-26T12:25:18.692Z,8.20
2018-12-26T12:26:18.529Z,8.20
2018-12-26T12:27:18.516Z,7.88
2018-12-26T12:28:18.512Z,7.83
2018-12-26T12:29:18.583Z,7.64
2018-12-26T12:30:26.948Z,7.68
2018-12-26T12:31:19.392Z,7.62
2018-12-26T12:32:18.543Z,7.55
2018-12-26T12:33:18.451Z,7.60
2018-12-26T12:35:29.664Z,7.50
2018-12-26T12:36:29.691Z,7.25
2018-12-26T12:37:29.621Z,7.29
2018-12-26T12:38:29.657Z,7.08
2018-12-26T12:39:29.641Z,6.93
2018-12-26T12:40:29.617Z,6.97
2018-12-26T12:41:29.624Z,7.00
2018-12-26T12:42:30.486Z,6.83
2018-12-26T12:43:29.578Z,6.78
2018-12-26T12:44:29.565Z,6.78
2018-12-26T12:45:29.530Z,6.68
2018-12-26T12:46:29.517Z,6.65
2018-12-26T12:47:29.506Z,6.57
2018-12-26T12:48:29.716Z,6.61
2018-12-26T12:49:29.510Z,6.49
2018-12-26T12:50:29.477Z,6.52
2018-12-26T12:51:29.466Z,6.53
2018-12-26T12:52:29.453Z,6.47
2018-12-26T12:53:29.461Z,6.45
2018-12-26T12:54:38.480Z,6.57
2018-12-26T12:55:29.429Z,6.57
2018-12-26T12:56:29.410Z,6.47
2018-12-26T12:57:29.400Z,6.46
2018-12-26T12:58:29.386Z,6.42
2018-12-26T12:59:29.448Z,6.53
2018-12-26T13:00:29.364Z,6.47
2018-12-26T13:01:29.353Z,6.38
2018-12-26T13:02:38.039Z,6.27
2018-12-26T13:03:29.342Z,6.38
2018-12-26T13:04:29.397Z,6.28
2018-12-26T13:05:29.307Z,6.25
2018-12-26T13:06:29.304Z,6.16